Terminal Aerodrome Forecast
Issued by NWS Binghamton, NY

Current Version | Previous Version | Text Only | Print | Product List | Glossary On
Versions: 1 2 3 4 5 6 7 8 9 10 11 12 13 14 15
000
FTUS41 KBGM 230541
TAFAVP
TAF
KAVP 230541Z 2306/2406 22004KT P6SM OVC100
     FM231300 21004KT P6SM -SHRA BKN025 OVC040
     FM231700 23010G17KT P6SM -SHRA OVC025
     FM232200 23010KT 5SM -SHRA BR OVC025
     FM240100 24005KT 4SM -SHRA BR OVC025=

USA.gov is the U.S. government's official web portal to all federal, state and local government web resources and services.